Time;durP1;ratioP1;P1;durP2;ratioP2;P2;SDS_P1;SDS_P2;PMS_P1;PMS_P2;Temp;Humidity;BMP_temperature;BMP_pressure;BME280_temperature;BME280_humidity;BME280_pressure;Samples;Min_cycle;Max_cycle;Signal;HPM_P1;HPM_P2
2023/10/04 00:00:54;;;;;;;13.35;1.92;;;12.30;99.90;;;;;;5072113;28;20382;-51
2023/10/04 00:03:20;;;;;;;12.43;2.65;;;12.30;99.90;;;;;;5071865;28;20052;-49
2023/10/04 00:05:46;;;;;;;8.88;1.98;;;12.30;99.90;;;;;;5071785;28;20047;-46
2023/10/04 00:08:11;;;;;;;8.95;2.63;;;12.20;99.90;;;;;;5071999;28;20040;-48
2023/10/04 00:10:37;;;;;;;11.95;1.80;;;12.10;99.90;;;;;;5071735;28;20041;-47
2023/10/04 00:13:03;;;;;;;10.32;2.03;;;12.20;99.90;;;;;;5054102;28;20040;-46
2023/10/04 00:15:31;;;;;;;16.38;2.58;;;12.20;99.90;;;;;;5071938;28;20048;-47
2023/10/04 00:17:57;;;;;;;11.95;1.90;;;12.10;99.90;;;;;;5071804;28;20057;-46
2023/10/04 00:20:31;;;;;;;10.23;2.00;;;12.10;99.90;;;;;;5071628;28;20126;-48
2023/10/04 00:22:57;;;;;;;11.80;2.10;;;12.10;99.90;;;;;;5071795;28;20040;-50
2023/10/04 00:25:23;;;;;;;10.27;2.10;;;12.10;99.90;;;;;;5070502;28;20032;-48
2023/10/04 00:27:55;;;;;;;11.00;2.13;;;12.10;99.90;;;;;;5071738;28;20083;-48
2023/10/04 00:30:20;;;;;;;10.05;2.28;;;12.10;99.90;;;;;;5070293;28;20106;-51
2023/10/04 00:32:46;;;;;;;10.32;1.98;;;12.00;99.90;;;;;;5071714;28;20076;-49
2023/10/04 00:35:19;;;;;;;12.18;1.98;;;12.10;99.90;;;;;;5071653;28;20094;-46
2023/10/04 00:37:52;;;;;;;14.60;3.00;;;12.00;99.90;;;;;;5071756;28;20080;-48
2023/10/04 00:40:26;;;;;;;16.95;3.28;;;12.10;99.90;;;;;;5074554;28;20391;-45
2023/10/04 00:42:54;;;;;;;12.93;2.65;;;12.00;99.90;;;;;;5074030;28;20121;-50
2023/10/04 00:45:22;;;;;;;15.40;2.85;;;12.00;99.90;;;;;;5073803;28;20056;-46
2023/10/04 00:47:57;;;;;;;12.55;2.30;;;12.00;99.90;;;;;;5075163;28;20094;-45
2023/10/04 00:50:34;;;;;;;12.60;2.22;;;12.00;99.90;;;;;;5074880;28;20036;-47
2023/10/04 00:53:08;;;;;;;11.75;2.20;;;12.10;99.90;;;;;;5075297;28;20037;-45
2023/10/04 00:55:34;;;;;;;9.13;1.80;;;12.00;99.90;;;;;;5075015;28;20043;-47
2023/10/04 00:58:05;;;;;;;10.93;2.42;;;12.00;99.90;;;;;;5074920;28;20040;-46
2023/10/04 01:00:31;;;;;;;13.85;2.75;;;12.00;99.90;;;;;;5075024;28;20038;-46
2023/10/04 01:02:57;;;;;;;12.75;2.80;;;12.10;99.90;;;;;;5075065;28;20032;-45
2023/10/04 01:05:26;;;;;;;13.98;2.22;;;12.00;99.90;;;;;;5074701;28;20052;-46
2023/10/04 01:07:53;;;;;;;13.50;2.45;;;12.00;99.90;;;;;;5074931;28;20040;-47
2023/10/04 01:10:27;;;;;;;11.73;2.25;;;12.00;99.90;;;;;;5074817;28;20531;-48
2023/10/04 01:12:55;;;;;;;13.77;2.33;;;12.00;99.90;;;;;;5074755;28;20500;-48
2023/10/04 01:15:33;;;;;;;14.55;2.75;;;12.00;99.90;;;;;;5075051;28;20046;-48
2023/10/04 01:18:04;;;;;;;12.57;2.30;;;12.10;99.90;;;;;;5074865;28;20093;-46
2023/10/04 01:20:30;;;;;;;14.13;2.42;;;12.10;99.90;;;;;;5074923;28;20097;-46
2023/10/04 01:23:06;;;;;;;13.68;2.28;;;12.10;99.90;;;;;;5074883;28;20486;-47
2023/10/04 01:25:39;;;;;;;14.18;3.47;;;12.10;99.90;;;;;;5074646;28;20076;-48
2023/10/04 01:28:13;;;;;;;13.60;2.92;;;12.10;99.90;;;;;;5074664;28;20384;-47
2023/10/04 01:30:40;;;;;;;17.92;2.28;;;12.10;99.90;;;;;;5074200;28;20135;-46
2023/10/04 01:33:15;;;;;;;13.75;2.85;;;12.00;99.90;;;;;;5074431;28;20405;-46
2023/10/04 01:35:42;;;;;;;8.60;2.15;;;12.10;99.90;;;;;;5074325;28;20087;-50
2023/10/04 01:38:08;;;;;;;9.43;2.08;;;12.10;99.90;;;;;;5074482;28;20076;-46
2023/10/04 01:40:35;;;;;;;13.73;2.83;;;12.10;99.90;;;;;;5074433;28;20040;-46
2023/10/04 01:43:18;;;;;;;11.27;2.25;;;12.10;99.90;;;;;;5074354;28;20051;-46
2023/10/04 01:45:59;;;;;;;12.57;2.28;;;12.00;99.90;;;;;;5074403;28;20422;-47
2023/10/04 01:48:27;;;;;;;13.57;2.67;;;12.10;99.90;;;;;;5074377;28;20123;-47
2023/10/04 01:50:53;;;;;;;12.73;2.20;;;12.00;99.90;;;;;;5073654;28;20043;-46
2023/10/04 01:53:24;;;;;;;11.98;2.10;;;12.10;99.90;;;;;;5074176;28;20119;-48
2023/10/04 01:55:50;;;;;;;10.90;2.13;;;12.10;99.90;;;;;;5073766;28;20545;-47
2023/10/04 01:58:18;;;;;;;10.27;2.15;;;12.00;99.90;;;;;;5074008;28;20044;-48
2023/10/04 02:00:44;;;;;;;9.70;2.10;;;12.00;99.90;;;;;;5072779;28;20049;-47
2023/10/04 02:03:10;;;;;;;12.45;2.10;;;12.10;99.90;;;;;;5073874;28;20056;-45
2023/10/04 02:05:40;;;;;;;10.38;2.42;;;12.10;99.90;;;;;;5073874;28;20079;-46
2023/10/04 02:08:08;;;;;;;10.80;2.35;;;12.10;99.90;;;;;;5072786;28;20119;-46
2023/10/04 02:10:35;;;;;;;10.27;2.75;;;12.10;99.90;;;;;;5073647;28;20086;-46
2023/10/04 02:13:01;;;;;;;11.48;2.20;;;12.00;99.90;;;;;;5073984;28;20041;-45
2023/10/04 02:15:27;;;;;;;10.70;2.55;;;12.10;99.90;;;;;;5073676;28;20049;-45
2023/10/04 02:17:53;;;;;;;13.15;2.22;;;12.10;99.90;;;;;;5073561;28;20044;-48
2023/10/04 02:20:31;;;;;;;14.48;2.63;;;12.10;99.90;;;;;;5073768;28;20438;-46
2023/10/04 02:22:56;;;;;;;11.55;2.75;;;12.00;99.90;;;;;;5073294;28;20045;-47
2023/10/04 02:25:22;;;;;;;12.48;3.67;;;12.00;99.90;;;;;;5073389;28;20382;-47
2023/10/04 02:27:49;;;;;;;11.02;2.40;;;12.10;99.90;;;;;;5073531;28;20119;-46
2023/10/04 02:30:26;;;;;;;12.68;2.58;;;12.10;99.90;;;;;;5073209;28;20056;-45
2023/10/04 02:32:52;;;;;;;10.68;2.10;;;12.10;99.90;;;;;;5073313;28;20049;-47
2023/10/04 02:35:34;;;;;;;10.18;2.55;;;12.10;99.90;;;;;;5073114;28;20081;-50
2023/10/04 02:38:08;;;;;;;10.75;2.22;;;12.10;99.90;;;;;;5072001;28;20565;-49
2023/10/04 02:40:34;;;;;;;12.52;2.30;;;12.10;99.90;;;;;;5073199;28;20037;-50
2023/10/04 02:43:00;;;;;;;12.60;2.10;;;12.10;99.90;;;;;;5073064;28;20083;-46
2023/10/04 02:45:29;;;;;;;13.93;2.28;;;12.10;99.90;;;;;;5072922;28;20495;-48
2023/10/04 02:47:54;;;;;;;14.07;2.08;;;12.20;99.90;;;;;;5072926;28;20040;-46
2023/10/04 02:50:23;;;;;;;13.02;2.58;;;12.20;99.90;;;;;;5073056;28;20036;-51
2023/10/04 02:52:50;;;;;;;11.20;2.10;;;12.20;99.90;;;;;;5072880;28;20036;-49
2023/10/04 02:55:19;;;;;;;11.07;2.20;;;12.20;99.90;;;;;;5071494;28;20484;-50
2023/10/04 02:57:49;;;;;;;12.15;2.47;;;12.20;99.90;;;;;;5072865;28;20040;-47
2023/10/04 03:00:17;;;;;;;9.55;2.72;;;12.20;99.90;;;;;;5072982;28;20098;-47
2023/10/04 03:02:48;;;;;;;15.30;2.55;;;12.20;99.90;;;;;;5070770;28;20055;-46
2023/10/04 03:05:19;;;;;;;17.60;2.60;;;12.20;99.90;;;;;;5072370;28;20511;-47
2023/10/04 03:07:47;;;;;;;11.45;2.40;;;12.20;99.90;;;;;;5072293;28;20120;-45
2023/10/04 03:10:23;;;;;;;10.32;2.58;;;12.10;99.90;;;;;;5072260;28;20102;-46
2023/10/04 03:12:53;;;;;;;12.88;2.10;;;12.10;99.90;;;;;;5072411;28;20044;-47
2023/10/04 03:15:23;;;;;;;10.57;1.98;;;12.00;99.90;;;;;;5072460;28;20110;-46
2023/10/04 03:17:52;;;;;;;11.45;2.20;;;12.00;99.90;;;;;;5072659;28;20045;-47
2023/10/04 03:20:29;;;;;;;17.08;2.38;;;12.10;99.90;;;;;;5071234;28;20052;-46
2023/10/04 03:22:55;;;;;;;11.40;2.40;;;12.10;99.90;;;;;;5072378;28;20048;-46
2023/10/04 03:25:26;;;;;;;13.30;2.60;;;12.10;99.90;;;;;;5072244;28;20036;-46
2023/10/04 03:27:53;;;;;;;12.57;2.55;;;12.00;99.90;;;;;;5072262;28;20036;-45
2023/10/04 03:30:20;;;;;;;9.57;2.40;;;12.00;99.90;;;;;;5072019;28;20128;-46
2023/10/04 03:32:55;;;;;;;12.32;2.55;;;12.10;99.90;;;;;;5072205;28;20377;-45
2023/10/04 03:35:22;;;;;;;11.07;2.45;;;12.00;99.90;;;;;;5072369;28;20044;-46
2023/10/04 03:37:58;;;;;;;10.27;2.22;;;11.90;99.90;;;;;;5072126;28;20052;-47
2023/10/04 03:40:24;;;;;;;13.85;2.10;;;11.90;99.90;;;;;;5072311;28;20053;-45
2023/10/04 03:42:50;;;;;;;11.93;2.38;;;12.00;99.90;;;;;;5072118;28;20076;-47
2023/10/04 03:45:18;;;;;;;12.35;2.50;;;12.10;99.90;;;;;;5072080;28;20079;-46
2023/10/04 03:47:45;;;;;;;9.52;1.92;;;12.10;99.90;;;;;;5072371;28;20036;-45
2023/10/04 03:50:12;;;;;;;15.02;3.08;;;12.20;99.90;;;;;;5072028;28;20047;-46
2023/10/04 03:52:39;;;;;;;14.98;2.20;;;12.20;99.90;;;;;;5071447;28;20047;-46
2023/10/04 03:55:10;;;;;;;10.80;2.42;;;12.30;99.90;;;;;;5072104;28;20119;-45
2023/10/04 03:57:40;;;;;;;10.65;2.45;;;12.20;99.90;;;;;;5072042;28;20390;-46
2023/10/04 04:00:09;;;;;;;10.48;2.17;;;12.20;99.90;;;;;;5072263;28;20036;-50
2023/10/04 04:02:34;;;;;;;11.32;1.80;;;12.10;99.90;;;;;;5071893;28;20123;-48
2023/10/04 04:05:01;;;;;;;13.50;2.83;;;12.10;99.90;;;;;;5072017;28;20132;-50
2023/10/04 04:07:27;;;;;;;10.63;2.72;;;12.10;99.90;;;;;;5071926;28;20052;-47
2023/10/04 04:09:53;;;;;;;12.85;2.45;;;12.00;99.90;;;;;;5070835;28;20040;-48
2023/10/04 04:12:18;;;;;;;12.18;2.38;;;12.00;99.90;;;;;;5071808;28;20044;-49
2023/10/04 04:14:44;;;;;;;12.88;2.50;;;12.00;99.90;;;;;;5075663;28;20044;-45
2023/10/04 04:17:09;;;;;;;11.23;2.55;;;12.00;99.90;;;;;;5075937;28;20048;-47
2023/10/04 04:19:36;;;;;;;10.00;2.45;;;12.00;99.90;;;;;;5075759;28;20040;-49
2023/10/04 04:22:02;;;;;;;9.52;2.15;;;12.00;99.90;;;;;;5076006;28;20370;-44
2023/10/04 04:24:27;;;;;;;9.13;2.25;;;12.00;99.90;;;;;;5075842;28;20048;-45
2023/10/04 04:26:58;;;;;;;11.77;2.30;;;12.00;99.90;;;;;;5076015;28;20040;-45
2023/10/04 04:29:24;;;;;;;10.63;2.40;;;12.00;99.90;;;;;;5076007;28;20048;-46
2023/10/04 04:31:52;;;;;;;14.27;2.47;;;12.00;99.90;;;;;;5075447;28;20408;-45
2023/10/04 04:34:18;;;;;;;10.23;2.22;;;12.00;99.90;;;;;;5075732;28;20123;-46
2023/10/04 04:36:46;;;;;;;10.60;1.90;;;12.00;99.90;;;;;;5075653;28;20393;-46
2023/10/04 04:39:18;;;;;;;8.85;1.90;;;12.00;99.90;;;;;;5075630;28;20087;-45
2023/10/04 04:41:46;;;;;;;11.48;2.28;;;12.10;99.90;;;;;;5075413;28;20051;-46
2023/10/04 04:44:19;;;;;;;9.57;2.13;;;12.10;99.90;;;;;;5075076;28;20047;-47
2023/10/04 04:46:47;;;;;;;9.95;2.15;;;12.10;99.90;;;;;;5074055;28;20036;-45
2023/10/04 04:49:13;;;;;;;12.05;2.53;;;12.10;99.90;;;;;;5075550;28;20107;-45
2023/10/04 04:51:39;;;;;;;10.40;2.38;;;12.10;99.90;;;;;;5075265;28;20472;-45
2023/10/04 04:54:06;;;;;;;14.75;3.17;;;12.00;99.90;;;;;;5074097;28;20076;-46
2023/10/04 04:56:32;;;;;;;11.40;2.63;;;12.00;99.90;;;;;;5075089;28;20112;-45
2023/10/04 04:59:07;;;;;;;9.82;2.20;;;12.10;99.90;;;;;;5074907;28;20135;-45
2023/10/04 05:01:34;;;;;;;10.27;2.38;;;12.10;99.90;;;;;;5075328;28;20036;-50
2023/10/04 05:04:03;;;;;;;9.68;2.30;;;12.00;99.90;;;;;;5074839;28;20484;-46
2023/10/04 05:06:30;;;;;;;10.40;1.98;;;11.90;99.90;;;;;;5072727;28;20044;-47
2023/10/04 05:08:56;;;;;;;11.63;2.63;;;11.90;99.90;;;;;;5073844;28;20103;-48
2023/10/04 05:11:26;;;;;;;12.82;2.40;;;11.80;99.90;;;;;;5073990;28;20041;-48
2023/10/04 05:13:56;;;;;;;13.45;2.70;;;11.80;99.90;;;;;;5064551;28;20071;-49
2023/10/04 05:16:22;;;;;;;10.52;2.45;;;11.80;99.90;;;;;;5061549;28;20547;-47
2023/10/04 05:18:47;;;;;;;12.55;2.33;;;11.70;99.90;;;;;;5053589;28;20120;-47
2023/10/04 05:21:14;;;;;;;9.38;2.38;;;11.80;99.90;;;;;;5053422;28;20080;-47
2023/10/04 05:23:40;;;;;;;13.18;2.90;;;11.70;99.90;;;;;;5053193;28;20068;-52
2023/10/04 05:26:08;;;;;;;14.00;3.85;;;11.70;99.90;;;;;;5055526;28;20040;-48
2023/10/04 05:28:35;;;;;;;14.02;3.33;;;11.80;99.90;;;;;;5061351;28;20531;-45
2023/10/04 05:31:01;;;;;;;13.65;2.88;;;11.80;99.90;;;;;;5068502;28;20048;-46
2023/10/04 05:33:27;;;;;;;16.42;2.83;;;11.80;99.90;;;;;;5073445;28;20381;-46
2023/10/04 05:35:55;;;;;;;11.27;2.53;;;11.80;99.90;;;;;;5073799;28;20048;-46
2023/10/04 05:38:22;;;;;;;9.70;2.30;;;11.80;99.90;;;;;;5073463;28;20044;-47
2023/10/04 05:40:49;;;;;;;10.93;2.75;;;11.90;99.90;;;;;;5073560;28;20496;-47
2023/10/04 05:43:16;;;;;;;14.07;2.88;;;11.80;99.90;;;;;;5073577;28;20079;-45
2023/10/04 05:45:43;;;;;;;10.68;2.47;;;11.80;99.90;;;;;;5073572;28;20033;-46
2023/10/04 05:48:10;;;;;;;11.05;2.65;;;11.70;99.90;;;;;;5072201;28;20070;-46
2023/10/04 05:50:36;;;;;;;9.38;2.63;;;11.80;99.90;;;;;;5073535;28;20036;-49
2023/10/04 05:53:07;;;;;;;10.65;2.40;;;11.80;99.90;;;;;;5073328;28;20037;-46
2023/10/04 05:55:37;;;;;;;14.05;2.97;;;11.80;99.90;;;;;;5073404;28;20111;-49
2023/10/04 05:58:07;;;;;;;18.90;3.00;;;11.80;99.90;;;;;;5072971;28;20036;-46
2023/10/04 06:00:34;;;;;;;8.75;2.38;;;11.80;99.90;;;;;;5072053;28;20050;-47
2023/10/04 06:03:04;;;;;;;12.60;3.20;;;11.80;99.90;;;;;;5072991;28;20072;-46
2023/10/04 06:05:33;;;;;;;16.10;3.20;;;11.80;99.90;;;;;;5071618;28;20123;-46
2023/10/04 06:07:59;;;;;;;15.68;3.10;;;11.70;99.90;;;;;;5073244;28;20695;-47
2023/10/04 06:10:25;;;;;;;13.52;3.05;;;11.80;99.90;;;;;;5072979;28;20127;-51
2023/10/04 06:12:57;;;;;;;11.38;3.67;;;11.80;99.90;;;;;;5071562;28;20107;-47
2023/10/04 06:15:24;;;;;;;11.20;3.15;;;11.80;99.90;;;;;;5072946;28;20048;-50
2023/10/04 06:17:51;;;;;;;14.20;3.10;;;11.80;99.90;;;;;;5072975;28;20146;-45
2023/10/04 06:20:25;;;;;;;12.32;2.60;;;11.90;99.90;;;;;;5072699;28;20702;-46
2023/10/04 06:22:57;;;;;;;9.93;2.60;;;11.90;99.90;;;;;;5072715;28;20083;-46
2023/10/04 06:25:24;;;;;;;;;;;12.00;99.90;;;;;;5073085;28;20531;-46
2023/10/04 06:27:51;;;;;;;13.70;3.17;;;11.90;99.90;;;;;;5071353;28;20314;-46
2023/10/04 06:30:21;;;;;;;11.40;3.08;;;12.00;99.90;;;;;;5072127;28;20045;-45
2023/10/04 06:32:51;;;;;;;13.80;3.58;;;12.00;99.90;;;;;;5072725;28;20040;-49
2023/10/04 06:35:17;;;;;;;14.18;3.17;;;12.00;99.90;;;;;;5072238;28;20037;-49
2023/10/04 06:37:44;;;;;;;13.55;3.33;;;12.00;99.90;;;;;;5071623;28;20062;-47
2023/10/04 06:40:15;;;;;;;11.65;3.10;;;12.10;99.90;;;;;;5072323;28;20048;-46
2023/10/04 06:42:43;;;;;;;12.27;2.88;;;12.20;99.90;;;;;;5072444;28;20041;-46
2023/10/04 06:45:12;;;;;;;13.38;2.97;;;12.20;99.90;;;;;;5070869;28;20044;-51
2023/10/04 06:47:38;;;;;;;13.48;3.28;;;12.20;99.90;;;;;;5070643;28;20043;-46
2023/10/04 06:50:06;;;;;;;13.73;3.05;;;12.20;99.90;;;;;;5071228;28;20044;-47
2023/10/04 06:52:32;;;;;;;10.30;2.83;;;12.20;99.90;;;;;;5071612;28;20044;-49
2023/10/04 06:54:58;;;;;;;14.48;3.35;;;12.20;99.90;;;;;;5071807;28;20465;-46
2023/10/04 06:57:24;;;;;;;16.63;3.22;;;12.20;99.90;;;;;;5071821;28;20072;-48
2023/10/04 06:59:49;;;;;;;13.85;3.97;;;12.30;99.90;;;;;;5068969;28;20049;-47
2023/10/04 07:02:15;;;;;;;11.05;3.20;;;12.30;99.90;;;;;;5071785;28;20043;-48
2023/10/04 07:04:41;;;;;;;10.50;3.42;;;12.40;99.90;;;;;;5071708;28;20048;-46
2023/10/04 07:07:06;;;;;;;11.40;3.17;;;12.30;99.90;;;;;;5070595;28;20055;-49
2023/10/04 07:09:33;;;;;;;14.20;4.38;;;12.40;99.90;;;;;;5072000;28;20086;-48
2023/10/04 07:11:58;;;;;;;13.10;3.15;;;12.50;99.90;;;;;;5071730;28;20075;-46
2023/10/04 07:14:24;;;;;;;12.85;3.15;;;12.60;99.90;;;;;;5071395;28;20083;-46
2023/10/04 07:16:51;;;;;;;12.30;3.80;;;12.60;99.90;;;;;;5069790;28;20535;-47
2023/10/04 07:19:17;;;;;;;14.95;4.30;;;12.70;99.90;;;;;;5071739;28;20036;-45
2023/10/04 07:21:42;;;;;;;14.95;3.28;;;12.80;99.90;;;;;;5071696;28;20503;-47
2023/10/04 07:24:08;;;;;;;13.63;3.47;;;12.90;99.90;;;;;;5071764;28;20501;-46
2023/10/04 07:26:35;;;;;;;22.73;4.28;;;12.90;99.90;;;;;;5071648;28;20485;-47
2023/10/04 07:29:02;;;;;;;12.82;3.38;;;13.00;99.90;;;;;;5066424;28;20068;-45
2023/10/04 07:31:28;;;;;;;17.38;3.50;;;13.10;99.90;;;;;;5051375;28;20127;-51
2023/10/04 07:33:54;;;;;;;14.65;4.43;;;13.10;99.90;;;;;;5051534;28;20465;-48
2023/10/04 07:36:20;;;;;;;12.77;3.53;;;13.20;99.90;;;;;;5062236;28;20064;-46
2023/10/04 07:38:48;;;;;;;13.50;3.63;;;13.30;99.90;;;;;;5069973;28;20448;-48
2023/10/04 07:41:15;;;;;;;12.45;3.28;;;13.30;99.90;;;;;;5070988;28;20051;-45
2023/10/04 07:43:41;;;;;;;15.90;3.42;;;13.40;99.90;;;;;;5069242;28;20036;-46
2023/10/04 07:46:07;;;;;;;13.30;3.63;;;13.50;99.90;;;;;;5068956;28;20044;-45
2023/10/04 07:48:32;;;;;;;12.25;3.15;;;13.50;99.90;;;;;;5070279;28;20048;-47
2023/10/04 07:50:58;;;;;;;13.30;3.50;;;13.60;99.90;;;;;;5052313;28;20045;-45
2023/10/04 07:53:25;;;;;;;13.32;3.53;;;13.70;99.90;;;;;;5051068;28;20045;-46
2023/10/04 07:55:50;;;;;;;13.73;3.25;;;13.70;99.90;;;;;;5051854;28;20130;-45
2023/10/04 07:58:17;;;;;;;14.77;3.17;;;13.80;99.90;;;;;;5051708;28;20451;-46
2023/10/04 08:00:43;;;;;;;13.23;3.95;;;13.90;99.90;;;;;;5052040;28;20115;-45
2023/10/04 08:03:09;;;;;;;17.67;3.90;;;13.90;99.90;;;;;;5060502;28;20525;-46
2023/10/04 08:05:36;;;;;;;11.32;3.05;;;14.00;99.90;;;;;;5071276;28;20128;-45
2023/10/04 08:08:03;;;;;;;14.15;3.53;;;14.00;99.90;;;;;;5071744;28;20111;-48
2023/10/04 08:10:32;;;;;;;12.93;3.33;;;14.10;99.90;;;;;;5072208;28;20115;-46
2023/10/04 08:13:00;;;;;;;13.48;3.15;;;14.20;99.90;;;;;;5071772;28;20048;-47
2023/10/04 08:15:27;;;;;;;15.48;4.03;;;14.20;99.90;;;;;;5072053;28;20044;-49
2023/10/04 08:17:58;;;;;;;15.25;3.38;;;14.30;99.90;;;;;;5072123;28;20396;-46
2023/10/04 08:20:32;;;;;;;12.77;2.80;;;14.30;99.90;;;;;;5070858;28;20063;-50
2023/10/04 08:22:58;;;;;;;11.85;3.53;;;14.30;99.90;;;;;;5072016;28;20036;-48
2023/10/04 08:25:27;;;;;;;11.88;3.80;;;14.40;99.90;;;;;;5071865;28;20036;-47
2023/10/04 08:27:53;;;;;;;17.38;3.88;;;14.50;99.90;;;;;;5071866;28;20037;-50
2023/10/04 08:30:20;;;;;;;12.73;3.33;;;14.60;99.90;;;;;;5071454;28;20067;-49
2023/10/04 08:32:48;;;;;;;14.80;3.40;;;14.60;99.90;;;;;;5071607;28;20129;-50
2023/10/04 08:35:33;;;;;;;10.85;3.42;;;14.70;99.90;;;;;;5071541;28;20040;-51
2023/10/04 08:38:03;;;;;;;12.93;3.88;;;14.80;96.30;;;;;;5071562;28;20079;-47
2023/10/04 08:40:29;;;;;;;19.42;4.60;;;14.90;92.90;;;;;;5071879;28;20392;-46
2023/10/04 08:42:57;;;;;;;14.52;3.50;;;15.00;86.10;;;;;;5070332;28;20048;-47
2023/10/04 08:45:27;;;;;;;15.05;4.50;;;15.10;88.90;;;;;;5071589;28;20136;-46
2023/10/04 08:47:57;;;;;;;19.63;3.60;;;15.10;84.50;;;;;;5071733;28;20045;-46
2023/10/04 08:50:29;;;;;;;14.38;3.75;;;15.00;83.20;;;;;;5071666;28;20032;-47
2023/10/04 08:53:03;;;;;;;14.48;3.22;;;15.10;71.70;;;;;;5071770;28;20417;-48
2023/10/04 08:55:36;;;;;;;17.02;3.55;;;15.10;88.30;;;;;;5071426;28;20050;-46
2023/10/04 08:58:02;;;;;;;12.13;3.78;;;15.20;83.30;;;;;;5071400;28;20067;-46
2023/10/04 09:00:30;;;;;;;12.65;4.32;;;15.20;83.20;;;;;;5071609;28;20123;-47
2023/10/04 09:02:56;;;;;;;13.00;3.92;;;15.30;69.30;;;;;;5073564;28;20492;-49
2023/10/04 09:05:28;;;;;;;14.13;3.33;;;15.40;71.40;;;;;;5074827;28;20083;-46
2023/10/04 09:07:55;;;;;;;;;;;15.50;71.40;;;;;;5074312;28;20490;-46
2023/10/04 09:10:22;;;;;;;18.92;4.05;;;15.50;44.60;;;;;;5075117;28;19920;-46
2023/10/04 09:12:48;;;;;;;16.50;3.95;;;15.50;49.40;;;;;;5073706;28;20041;-45
2023/10/04 09:15:14;;;;;;;13.55;3.90;;;15.60;59.40;;;;;;5074851;28;20087;-47
2023/10/04 09:17:47;;;;;;;17.52;4.80;;;15.50;52.40;;;;;;5074763;28;20528;-46
2023/10/04 09:20:16;;;;;;;11.98;3.78;;;15.60;44.00;;;;;;5074963;28;20037;-47
2023/10/04 09:22:43;;;;;;;12.50;3.85;;;15.60;49.40;;;;;;5076194;28;20503;-45
2023/10/04 09:25:10;;;;;;;15.77;4.07;;;15.60;54.60;;;;;;5074663;28;20040;-47
2023/10/04 09:27:37;;;;;;;13.80;4.00;;;15.70;51.50;;;;;;5074560;28;20043;-47
2023/10/04 09:30:23;;;;;;;11.48;3.28;;;15.80;47.30;;;;;;5074149;28;20056;-47
2023/10/04 09:32:51;;;;;;;11.68;3.63;;;15.80;27.00;;;;;;5073564;28;20110;-46
2023/10/04 09:35:20;;;;;;;15.90;3.95;;;16.00;28.20;;;;;;5074538;28;20051;-47
2023/10/04 09:37:48;;;;;;;14.60;3.92;;;15.90;23.30;;;;;;5074619;28;20037;-45
2023/10/04 09:40:16;;;;;;;14.18;3.78;;;16.00;26.50;;;;;;5074327;28;20484;-48
2023/10/04 09:42:56;;;;;;;15.68;4.20;;;16.00;20.50;;;;;;5074181;28;20047;-50
2023/10/04 09:45:26;;;;;;;14.10;3.63;;;16.00;16.20;;;;;;5074208;28;20087;-48
2023/10/04 09:47:53;;;;;;;15.40;4.07;;;15.90;8.10;;;;;;5074375;28;20126;-48
2023/10/04 09:50:21;;;;;;;12.68;3.50;;;16.00;15.40;;;;;;5074146;28;20043;-47
2023/10/04 09:52:47;;;;;;;14.07;3.60;;;15.90;11.10;;;;;;5074419;28;20480;-51
2023/10/04 09:55:13;;;;;;;13.32;3.70;;;16.10;6.90;;;;;;5074046;28;20193;-47
2023/10/04 09:57:42;;;;;;;9.75;3.40;;;16.20;1.00;;;;;;5074163;28;20044;-46
2023/10/04 10:00:16;;;;;;;13.38;4.03;;;16.40;1.00;;;;;;5074220;28;20076;-48
2023/10/04 10:02:48;;;;;;;13.88;3.40;;;16.50;1.00;;;;;;5073965;28;20052;-49
2023/10/04 10:05:26;;;;;;;;;;;16.50;1.00;;;;;;5074110;28;20174;-45
2023/10/04 10:07:53;;;;;;;15.27;4.55;;;16.50;1.00;;;;;;5073769;28;20003;-45
2023/10/04 10:10:21;;;;;;;17.73;4.20;;;16.50;1.00;;;;;;5073971;28;20251;-46
2023/10/04 10:12:51;;;;;;;14.05;3.45;;;16.50;1.00;;;;;;5073733;28;20396;-46
2023/10/04 10:15:21;;;;;;;14.43;3.78;;;16.50;1.00;;;;;;5072557;28;20058;-47
2023/10/04 10:17:48;;;;;;;11.70;3.65;;;16.60;1.00;;;;;;5073639;28;20518;-48
2023/10/04 10:20:15;;;;;;;18.48;4.82;;;16.60;1.00;;;;;;5072426;28;20029;-45
2023/10/04 10:22:59;;;;;;;14.68;4.10;;;16.50;1.00;;;;;;5073572;28;20040;-47
2023/10/04 10:25:26;;;;;;;16.45;4.38;;;16.30;1.00;;;;;;5073401;28;20044;-49
2023/10/04 10:28:01;;;;;;;15.55;4.28;;;16.30;1.00;;;;;;5073451;28;20408;-45
2023/10/04 10:30:31;;;;;;;15.70;4.22;;;16.30;1.00;;;;;;5073223;28;20481;-47
2023/10/04 10:32:58;;;;;;;15.15;4.10;;;16.30;1.00;;;;;;5073336;28;20041;-46
2023/10/04 10:35:49;;;;;;;13.00;4.60;;;16.20;1.00;;;;;;5072080;28;20164;-48
2023/10/04 10:38:31;;;;;;;16.38;4.53;;;16.20;1.00;;;;;;5072961;28;20059;-47
2023/10/04 10:40:56;;;;;;;;;;;16.20;1.00;;;;;;5073518;28;20055;-46
2023/10/04 10:43:22;;;;;;;11.93;4.10;;;16.10;1.00;;;;;;5072706;28;19917;-47
2023/10/04 10:45:48;;;;;;;13.85;4.38;;;16.20;1.00;;;;;;5072734;28;20105;-51
2023/10/04 10:48:14;;;;;;;15.52;3.92;;;16.10;1.00;;;;;;5073139;28;20397;-45
2023/10/04 10:50:43;;;;;;;15.80;4.63;;;16.10;1.00;;;;;;5052328;28;20037;-48
2023/10/04 10:53:10;;;;;;;12.43;3.92;;;16.10;1.00;;;;;;5053108;28;20040;-48
2023/10/04 10:55:40;;;;;;;17.20;4.00;;;16.10;1.00;;;;;;5052911;28;20389;-46
2023/10/04 10:58:07;;;;;;;13.15;4.00;;;16.10;1.00;;;;;;5052541;28;20040;-46
2023/10/04 11:00:35;;;;;;;13.98;4.20;;;16.00;1.00;;;;;;5052569;28;20040;-46
2023/10/04 11:03:05;;;;;;;12.95;3.67;;;16.00;1.00;;;;;;5052469;28;20520;-46
2023/10/04 11:05:31;;;;;;;12.80;3.65;;;16.00;1.00;;;;;;5052404;28;20056;-51
2023/10/04 11:07:57;;;;;;;13.85;4.53;;;16.10;1.00;;;;;;5052362;28;20029;-48
2023/10/04 11:10:24;;;;;;;16.88;4.65;;;16.00;1.00;;;;;;5052407;28;20043;-48
2023/10/04 11:12:53;;;;;;;15.30;4.15;;;16.00;1.00;;;;;;5052668;28;20036;-49
2023/10/04 11:15:23;;;;;;;16.55;4.45;;;16.10;1.00;;;;;;5052488;28;20041;-48
2023/10/04 11:17:52;;;;;;;13.05;3.88;;;16.10;1.00;;;;;;5051161;28;20440;-50
2023/10/04 11:20:18;;;;;;;13.68;4.38;;;16.20;1.00;;;;;;5052715;28;20037;-46
2023/10/04 11:22:45;;;;;;;12.80;3.75;;;16.30;1.00;;;;;;5051720;28;20378;-47
2023/10/04 11:25:13;;;;;;;14.68;3.80;;;16.30;1.00;;;;;;5052337;28;20049;-48
2023/10/04 11:27:42;;;;;;;14.90;3.97;;;16.40;1.00;;;;;;5052197;28;20044;-47
2023/10/04 11:30:10;;;;;;;15.45;4.65;;;16.40;1.00;;;;;;5062671;28;20068;-46
2023/10/04 11:32:40;;;;;;;16.00;4.53;;;16.50;1.00;;;;;;5061695;28;20044;-46
2023/10/04 11:35:11;;;;;;;15.77;4.13;;;16.50;1.00;;;;;;5060836;28;20477;-46
2023/10/04 11:37:53;;;;;;;14.85;4.38;;;16.60;1.00;;;;;;5061440;28;20405;-46
2023/10/04 11:40:26;;;;;;;12.18;3.65;;;16.50;1.00;;;;;;5061594;28;20076;-47
2023/10/04 11:43:00;;;;;;;11.80;4.35;;;16.40;1.00;;;;;;5060532;28;20619;-47
2023/10/04 11:45:26;;;;;;;17.40;4.10;;;16.40;1.00;;;;;;5060853;28;20036;-47
2023/10/04 11:48:05;;;;;;;15.15;4.75;;;16.40;1.00;;;;;;5062612;28;20485;-48
2023/10/04 11:50:48;;;;;;;14.85;3.70;;;16.30;1.00;;;;;;5061909;28;20041;-47
2023/10/04 11:53:34;;;;;;;12.68;3.78;;;16.40;1.00;;;;;;5071966;28;20040;-48
2023/10/04 11:56:03;;;;;;;11.63;4.00;;;16.50;1.00;;;;;;5071910;28;20399;-49
2023/10/04 11:58:30;;;;;;;12.77;3.47;;;16.50;1.00;;;;;;5072023;28;20439;-47
2023/10/04 12:01:06;;;;;;;15.77;5.05;;;16.50;1.00;;;;;;5071957;28;20121;-48
2023/10/04 12:03:32;;;;;;;14.80;4.13;;;16.60;1.00;;;;;;5072087;28;20048;-46
2023/10/04 12:05:59;;;;;;;12.15;3.97;;;16.70;1.00;;;;;;5072091;28;20090;-46
2023/10/04 12:08:25;;;;;;;11.45;3.95;;;16.60;1.00;;;;;;5071829;28;20055;-46
2023/10/04 12:10:51;;;;;;;13.48;4.18;;;16.60;1.00;;;;;;5072101;28;20032;-49
2023/10/04 12:13:16;;;;;;;14.38;4.03;;;16.50;1.00;;;;;;5072049;28;20465;-46
2023/10/04 12:15:45;;;;;;;12.77;3.90;;;16.60;1.00;;;;;;5071848;28;20045;-46
2023/10/04 12:18:10;;;;;;;12.88;3.75;;;16.60;1.00;;;;;;5044665;28;20048;-46
2023/10/04 12:20:36;;;;;;;14.45;3.30;;;16.60;1.00;;;;;;5059938;28;20389;-46
2023/10/04 12:23:02;;;;;;;10.40;3.47;;;16.60;1.00;;;;;;5060310;28;20051;-46
2023/10/04 12:25:28;;;;;;;10.25;3.08;;;16.50;1.00;;;;;;5061449;28;20032;-45
2023/10/04 12:27:55;;;;;;;10.88;3.00;;;16.60;1.00;;;;;;5056694;28;20043;-46
2023/10/04 12:30:23;;;;;;;12.38;2.92;;;16.70;1.00;;;;;;5050333;28;20417;-56
2023/10/04 12:32:49;;;;;;;11.48;2.88;;;16.70;1.00;;;;;;5051464;28;20045;-50
2023/10/04 12:35:15;;;;;;;13.55;3.17;;;16.70;1.00;;;;;;5052790;28;20044;-48
2023/10/04 12:37:41;;;;;;;11.30;2.75;;;16.80;1.00;;;;;;5071157;28;20521;-45
2023/10/04 12:40:16;;;;;;;10.35;2.97;;;16.90;1.00;;;;;;5071717;28;20080;-46
2023/10/04 12:42:42;;;;;;;11.55;2.47;;;17.00;1.00;;;;;;5064976;28;20033;-45
2023/10/04 12:45:10;;;;;;;12.32;2.83;;;17.00;1.00;;;;;;5064588;28;20140;-46
2023/10/04 12:47:36;;;;;;;8.85;2.58;;;16.90;1.00;;;;;;5073968;28;20040;-47